Time;durP1;ratioP1;P1;durP2;ratioP2;P2;SDS_P1;SDS_P2;PMS_P1;PMS_P2;Temp;Humidity;BMP_temperature;BMP_pressure;BME280_temperature;BME280_humidity;BME280_pressure;Samples;Min_cycle;Max_cycle;Signal;HPM_P1;HPM_P2
2023/08/11 00:02:20;;;;;;;;;10.00;9.75;;;;;15.29;70.46;100407.03;4977666;28;9515;-60
2023/08/11 00:04:49;;;;;;;;;9.75;9.75;;;;;15.28;70.65;100408.91;4977559;28;9528;-61
2023/08/11 00:07:17;;;;;;;;;9.25;9.25;;;;;15.26;71.02;100399.28;4977935;28;8832;-61
2023/08/11 00:09:45;;;;;;;;;12.50;12.00;;;;;15.24;70.76;100398.59;4977855;28;8839;-59
2023/08/11 00:12:13;;;;;;;;;9.00;9.00;;;;;15.24;70.27;100395.91;4978384;28;8832;-61
2023/08/11 00:14:40;;;;;;;;;6.00;6.00;;;;;15.23;70.39;100399.53;4977850;28;9714;-61
2023/08/11 00:17:08;;;;;;;;;6.25;6.00;;;;;15.17;70.41;100392.91;4977280;28;8837;-58
2023/08/11 00:19:36;;;;;;;;;5.50;3.75;;;;;15.16;70.82;100390.41;4977456;28;8824;-60
2023/08/11 00:22:05;;;;;;;;;6.00;5.00;;;;;15.11;70.96;100385.41;4977940;28;8816;-61
2023/08/11 00:24:33;;;;;;;;;9.25;9.25;;;;;15.08;70.88;100387.53;4977514;28;8847;-60
2023/08/11 00:27:01;;;;;;;;;7.00;7.00;;;;;15.06;70.89;100386.84;4977496;28;8836;-59
2023/08/11 00:29:30;;;;;;;;;14.00;12.25;;;;;15.05;70.90;100386.00;4977277;28;8836;-61
2023/08/11 00:31:58;;;;;;;;;9.75;9.50;;;;;15.05;71.21;100385.13;4977684;28;8833;-60
2023/08/11 00:34:26;;;;;;;;;11.50;10.50;;;;;15.04;70.76;100381.63;4977398;28;8828;-61
2023/08/11 00:36:55;;;;;;;;;9.75;9.50;;;;;15.02;70.67;100385.44;4977430;28;9574;-60
2023/08/11 00:39:23;;;;;;;;;9.25;7.50;;;;;15.03;71.20;100384.44;4977424;28;8903;-60
2023/08/11 00:41:51;;;;;;;;;10.00;10.00;;;;;15.02;71.30;100390.78;4977510;28;8829;-59
2023/08/11 00:44:18;;;;;;;;;11.00;11.00;;;;;15.00;70.79;100387.38;4977410;28;8856;-61
2023/08/11 00:46:47;;;;;;;;;9.50;9.50;;;;;15.00;71.33;100398.09;4977549;28;8833;-59
2023/08/11 00:49:15;;;;;;;;;9.50;8.00;;;;;14.99;70.56;100393.75;4977522;28;9568;-60
2023/08/11 00:51:42;;;;;;;;;9.00;9.00;;;;;14.99;71.24;100380.31;4977807;28;8938;-61
2023/08/11 00:54:10;;;;;;;;;10.00;10.00;;;;;15.00;71.15;100379.34;4977306;28;8833;-58
2023/08/11 00:56:40;;;;;;;;;10.00;9.75;;;;;15.00;70.72;100387.38;4977277;28;8853;-61
2023/08/11 00:59:09;;;;;;;;;9.00;9.00;;;;;15.00;71.14;100384.69;4976984;28;9486;-61
2023/08/11 01:01:37;;;;;;;;;7.50;6.50;;;;;14.99;71.02;100378.50;4976225;28;8828;-59
2023/08/11 01:04:07;;;;;;;;;3.00;3.00;;;;;14.99;70.92;100372.28;4976691;28;8824;-60
2023/08/11 01:06:34;;;;;;;;;10.25;9.00;;;;;15.00;70.88;100371.28;4977252;28;8845;-61
2023/08/11 01:09:03;;;;;;;;;9.75;9.50;;;;;14.98;71.03;100367.91;4977351;28;8837;-59
2023/08/11 01:11:30;;;;;;;;;7.00;7.00;;;;;14.94;71.18;100371.88;4977413;28;8851;-60
2023/08/11 01:13:59;;;;;;;;;9.75;7.00;;;;;14.90;71.55;100373.13;4977156;28;8824;-59
2023/08/11 01:16:27;;;;;;;;;6.75;6.50;;;;;14.86;71.50;100369.03;4977461;28;8835;-58
2023/08/11 01:18:54;;;;;;;;;6.75;6.75;;;;;14.81;71.05;100361.38;4977006;28;8824;-60
2023/08/11 01:21:22;;;;;;;;;7.50;6.50;;;;;14.80;71.62;100362.38;4976747;28;8866;-60
2023/08/11 01:23:50;;;;;;;;;7.50;7.50;;;;;14.79;71.38;100363.34;4976625;28;8851;-58
2023/08/11 01:26:17;;;;;;;;;9.00;9.00;;;;;14.79;71.77;100354.47;4976752;28;8862;-59
2023/08/11 01:28:47;;;;;;;;;8.50;8.50;;;;;14.81;71.34;100360.56;4976460;28;8825;-61
2023/08/11 01:31:14;;;;;;;;;6.50;6.50;;;;;14.81;71.41;100360.56;4976072;28;8852;-58
2023/08/11 01:33:42;;;;;;;;;6.25;5.75;;;;;14.82;71.18;100359.56;4976772;28;8832;-59
2023/08/11 01:36:09;;;;;;;;;6.50;6.50;;;;;14.81;71.61;100366.75;4976689;28;8844;-60
2023/08/11 01:38:37;;;;;;;;;6.75;6.75;;;;;14.80;71.84;100370.41;4976870;28;8879;-61
2023/08/11 01:41:05;;;;;;;;;9.75;8.50;;;;;14.78;71.61;100366.16;4975864;28;8835;-61
2023/08/11 01:43:34;;;;;;;;;9.00;9.00;;;;;14.77;71.33;100367.16;4975236;28;8832;-60
2023/08/11 01:46:01;;;;;;;;;10.50;9.25;;;;;14.74;71.85;100364.75;4976376;28;8828;-60
2023/08/11 01:48:29;;;;;;;;;6.00;6.00;;;;;14.73;71.33;100353.19;4976486;28;9741;-61
2023/08/11 01:50:57;;;;;;;;;11.00;9.00;;;;;14.70;71.87;100358.84;4976379;28;8849;-59
2023/08/11 01:53:24;;;;;;;;;6.25;6.25;;;;;14.69;71.45;100357.13;4976707;28;8827;-60
2023/08/11 01:55:52;;;;;;;;;7.00;7.00;;;;;14.67;71.96;100366.31;4976814;28;8829;-59
2023/08/11 01:58:20;;;;;;;;;7.00;6.75;;;;;14.64;71.79;100353.19;4976863;28;8831;-60
2023/08/11 02:00:47;;;;;;;;;9.50;9.50;;;;;14.60;71.61;100355.28;4977028;28;8821;-60
2023/08/11 02:03:15;;;;;;;;;6.50;6.50;;;;;14.57;71.86;100355.53;4976425;28;8863;-59
2023/08/11 02:05:43;;;;;;;;;6.25;6.25;;;;;14.55;72.20;100345.94;4976816;28;8855;-60
2023/08/11 02:08:17;;;;;;;;;7.00;7.00;;;;;14.53;71.78;100347.91;4976978;28;8856;-58
2023/08/11 02:10:45;;;;;;;;;9.50;7.50;;;;;14.51;71.45;100353.41;4976511;28;8853;-60
2023/08/11 02:13:13;;;;;;;;;9.00;7.50;;;;;14.50;72.20;100353.56;4976736;28;8848;-61
2023/08/11 02:15:41;;;;;;;;;7.00;6.00;;;;;14.51;71.71;100357.94;4977004;28;8828;-60
2023/08/11 02:18:09;;;;;;;;;9.25;9.25;;;;;14.49;72.22;100354.56;4976693;28;8843;-58
2023/08/11 02:20:37;;;;;;;;;9.00;8.00;;;;;14.48;71.91;100352.88;4976797;28;8847;-59
2023/08/11 02:23:05;;;;;;;;;8.50;8.00;;;;;14.47;72.25;100348.47;4976604;28;8833;-59
2023/08/11 02:25:33;;;;;;;;;10.50;9.50;;;;;14.47;71.68;100356.50;4977070;28;8840;-60
2023/08/11 02:28:01;;;;;;;;;11.50;10.50;;;;;14.45;71.68;100355.78;4976378;28;8835;-61
2023/08/11 02:30:30;;;;;;;;;11.50;11.00;;;;;14.45;72.14;100347.75;4976744;28;8829;-60
2023/08/11 02:32:57;;;;;;;;;10.25;10.25;;;;;14.45;71.89;100358.47;4976483;28;9518;-59
2023/08/11 02:35:25;;;;;;;;;12.00;12.00;;;;;14.45;71.86;100364.69;4976553;28;8828;-58
2023/08/11 02:37:53;;;;;;;;;6.00;5.00;;;;;14.43;71.72;100345.19;4976474;28;8840;-60
2023/08/11 02:40:20;;;;;;;;;9.00;8.00;;;;;14.44;72.18;100340.72;4976441;28;8840;-60
2023/08/11 02:42:49;;;;;;;;;9.75;9.00;;;;;14.43;72.23;100336.34;4976489;28;8846;-61
2023/08/11 02:45:16;;;;;;;;;9.00;8.00;;;;;14.42;72.06;100331.97;4976446;28;8843;-60
2023/08/11 02:47:44;;;;;;;;;8.50;7.50;;;;;14.42;71.74;100334.66;4977248;28;8828;-61
2023/08/11 02:50:13;;;;;;;;;8.50;6.25;;;;;14.38;72.10;100335.88;4979818;28;8947;-61
2023/08/11 02:52:40;;;;;;;;;8.00;8.00;;;;;14.36;72.34;100332.50;4979754;28;8922;-61
2023/08/11 02:55:08;;;;;;;;;10.50;9.75;;;;;14.32;72.38;100321.22;4978325;28;8896;-61
2023/08/11 02:57:36;;;;;;;;;7.00;6.25;;;;;14.30;72.05;100327.69;4978459;28;8816;-60
2023/08/11 03:00:08;;;;;;;;;6.50;6.25;;;;;14.28;72.35;100324.31;4978775;28;8824;-61
2023/08/11 03:02:35;;;;;;;;;7.00;6.50;;;;;14.25;72.72;100327.22;4979049;28;8840;-60
2023/08/11 03:05:03;;;;;;;;;3.25;3.25;;;;;14.24;72.33;100328.22;4978622;28;8848;-59
2023/08/11 03:07:31;;;;;;;;;10.00;9.00;;;;;14.21;72.36;100328.50;4979098;28;8821;-59
2023/08/11 03:09:59;;;;;;;;;5.00;5.00;;;;;14.19;72.64;100317.91;4979899;28;8833;-61
2023/08/11 03:12:27;;;;;;;;;9.00;9.00;;;;;14.18;72.65;100318.91;4979669;28;8817;-61
2023/08/11 03:14:55;;;;;;;;;9.00;9.00;;;;;14.16;72.71;100314.63;4979235;28;8868;-59
2023/08/11 03:17:23;;;;;;;;;9.00;8.50;;;;;14.15;72.61;100318.28;4979397;28;8832;-61
2023/08/11 03:19:50;;;;;;;;;7.50;7.00;;;;;14.14;72.65;100311.25;4979241;28;8832;-60
2023/08/11 03:22:19;;;;;;;;;10.50;9.75;;;;;14.13;72.53;100320.25;4979082;28;8839;-61
2023/08/11 03:24:47;;;;;;;;;6.50;6.50;;;;;14.14;72.26;100319.28;4979316;28;8837;-60
2023/08/11 03:27:16;;;;;;;;;7.50;7.50;;;;;14.13;72.26;100314.91;4979065;28;8864;-60
2023/08/11 03:29:43;;;;;;;;;8.00;7.00;;;;;14.12;72.98;100319.41;4978891;28;8911;-60
2023/08/11 03:32:11;;;;;;;;;7.00;6.00;;;;;14.10;72.83;100316.03;4978434;28;8868;-60
2023/08/11 03:34:39;;;;;;;;;7.00;7.00;;;;;14.09;72.91;100318.81;4978921;28;8847;-61
2023/08/11 03:37:06;;;;;;;;;7.00;7.00;;;;;14.06;73.06;100322.66;4978567;28;8828;-61
2023/08/11 03:39:34;;;;;;;;;6.50;6.25;;;;;14.04;72.81;100319.22;4979459;28;8936;-61
2023/08/11 03:42:02;;;;;;;;;8.00;6.75;;;;;14.02;72.91;100317.66;4978987;28;8836;-61
2023/08/11 03:44:29;;;;;;;;;9.00;9.00;;;;;14.03;72.85;100322.91;4978665;28;8866;-58
2023/08/11 03:46:57;;;;;;;;;6.25;6.00;;;;;14.03;72.74;100316.72;4978465;28;8840;-59
2023/08/11 03:49:25;;;;;;;;;12.25;9.00;;;;;14.07;73.12;100310.94;4978301;28;8911;-59
2023/08/11 03:51:53;;;;;;;;;3.75;3.50;;;;;14.07;72.42;100316.31;4978629;28;8963;-60
2023/08/11 03:54:20;;;;;;;;;8.50;7.50;;;;;14.06;72.71;100303.91;4977912;28;8852;-61
2023/08/11 03:57:06;;;;;;;;;6.00;6.00;;;;;14.04;72.62;100315.72;4978145;28;8833;-61
2023/08/11 03:59:34;;;;;;;;;9.00;9.00;;;;;14.01;72.82;100315.97;4977448;28;8845;-60
2023/08/11 04:02:01;;;;;;;;;8.50;7.00;;;;;13.97;73.11;100311.88;4978192;28;8833;-60
2023/08/11 04:04:29;;;;;;;;;6.00;6.00;;;;;13.94;72.81;100314.81;4978087;28;9496;-61
2023/08/11 04:06:57;;;;;;;;;6.00;6.00;;;;;13.92;73.28;100311.44;4977597;28;8972;-61
2023/08/11 04:09:25;;;;;;;;;4.00;4.00;;;;;13.91;72.82;100315.09;4977339;28;8833;-61
2023/08/11 04:11:53;;;;;;;;;6.50;6.00;;;;;13.93;72.78;100305.09;4977205;28;8962;-61
2023/08/11 04:14:20;;;;;;;;;7.00;7.00;;;;;13.95;72.54;100300.44;4977184;28;8875;-61
2023/08/11 04:16:48;;;;;;;;;5.00;5.00;;;;;13.96;72.57;100304.84;4977399;28;8832;-59
2023/08/11 04:19:16;;;;;;;;;10.00;6.75;;;;;13.98;72.83;100308.22;4977083;28;8833;-61
2023/08/11 04:21:43;;;;;;;;;9.00;7.75;;;;;13.98;72.42;100305.53;4976434;28;8842;-59
2023/08/11 04:24:11;;;;;;;;;6.25;6.25;;;;;14.00;73.10;100298.22;4976267;28;9841;-60
2023/08/11 04:26:39;;;;;;;;;5.00;4.00;;;;;14.03;72.78;100304.16;4977513;28;8839;-59
2023/08/11 04:29:06;;;;;;;;;8.25;6.75;;;;;14.06;72.86;100303.03;4977429;28;8829;-60
2023/08/11 04:31:34;;;;;;;;;9.00;8.00;;;;;14.06;73.00;100292.31;4977425;28;8947;-61
2023/08/11 04:34:03;;;;;;;;;7.00;6.00;;;;;14.10;72.30;100304.44;4977668;28;8844;-61
2023/08/11 04:36:32;;;;;;;;;4.00;4.00;;;;;14.12;72.50;100297.97;4977384;28;8824;-60
2023/08/11 04:38:59;;;;;;;;;9.00;7.50;;;;;14.15;72.40;100307.56;4977822;28;8836;-61
2023/08/11 04:41:27;;;;;;;;;9.00;7.00;;;;;14.19;72.11;100303.69;4977504;28;8903;-61
2023/08/11 04:43:55;;;;;;;;;7.00;7.00;;;;;14.23;72.27;100313.13;4977199;28;8859;-60
2023/08/11 04:46:23;;;;;;;;;7.75;7.75;;;;;14.28;72.33;100314.41;4977209;28;8860;-61
2023/08/11 04:48:51;;;;;;;;;8.50;8.00;;;;;14.35;72.04;100317.41;4977436;28;8836;-61
2023/08/11 04:51:18;;;;;;;;;7.00;7.00;;;;;14.42;71.78;100310.53;4976525;28;9513;-61
2023/08/11 04:53:46;;;;;;;;;11.00;10.00;;;;;14.51;72.13;100315.88;4976606;28;8843;-61
2023/08/11 04:56:14;;;;;;;;;12.00;10.00;;;;;14.60;71.91;100308.84;4976587;28;8903;-58
2023/08/11 04:58:41;;;;;;;;;9.50;9.50;;;;;14.70;71.32;100309.72;4976613;28;8874;-61
2023/08/11 05:01:09;;;;;;;;;9.00;6.50;;;;;14.79;70.73;100314.25;4976053;28;8821;-59
2023/08/11 05:03:37;;;;;;;;;9.00;9.00;;;;;14.87;71.20;100312.56;4976492;28;8971;-58
2023/08/11 05:06:05;;;;;;;;;5.00;5.00;;;;;14.98;71.54;100314.25;4976135;28;8922;-61
2023/08/11 05:08:33;;;;;;;;;6.50;6.50;;;;;15.07;70.88;100316.09;4976434;28;8864;-58
2023/08/11 05:11:01;;;;;;;;;10.00;9.00;;;;;15.14;70.96;100311.84;4975692;28;8847;-61
2023/08/11 05:13:29;;;;;;;;;6.00;6.00;;;;;15.23;70.68;100313.69;4976449;28;8967;-58
2023/08/11 05:15:57;;;;;;;;;7.00;7.00;;;;;15.32;70.30;100307.53;4976078;28;8839;-61
2023/08/11 05:18:24;;;;;;;;;6.75;6.00;;;;;15.41;70.48;100314.72;4975962;28;8836;-59
2023/08/11 05:21:05;;;;;;;;;5.50;5.00;;;;;15.51;69.94;100307.47;4976578;28;8839;-61
2023/08/11 05:23:33;;;;;;;;;7.50;7.50;;;;;15.60;70.06;100304.78;4976102;28;8840;-60
2023/08/11 05:26:01;;;;;;;;;4.00;4.00;;;;;15.70;69.50;100302.91;4975583;28;8832;-58
2023/08/11 05:28:28;;;;;;;;;10.50;10.00;;;;;15.80;69.66;100300.19;4975750;28;8930;-61
2023/08/11 05:30:56;;;;;;;;;13.00;12.75;;;;;15.89;69.59;100302.88;4975398;28;8943;-61
2023/08/11 05:33:24;;;;;;;;;8.50;8.50;;;;;15.97;69.40;100289.53;4975533;28;8955;-60
2023/08/11 05:35:52;;;;;;;;;9.25;9.25;;;;;16.06;69.10;100291.34;4975805;28;8848;-59
2023/08/11 05:38:20;;;;;;;;;11.50;10.00;;;;;16.13;69.05;100299.63;4974559;28;8832;-58
2023/08/11 05:40:47;;;;;;;;;10.00;10.00;;;;;16.17;69.26;100300.03;4975116;28;8855;-61
2023/08/11 05:43:15;;;;;;;;;9.00;7.60;;;;;16.23;68.93;100292.41;4975124;28;8833;-59
2023/08/11 05:45:43;;;;;;;;;8.00;8.00;;;;;16.31;69.22;100294.19;4974505;28;8851;-59
2023/08/11 05:48:11;;;;;;;;;9.00;9.00;;;;;16.38;69.00;100294.44;4974747;28;8911;-58
2023/08/11 05:50:38;;;;;;;;;11.80;11.80;;;;;16.45;68.78;100291.03;4974017;28;8848;-61
2023/08/11 05:53:06;;;;;;;;;10.00;9.60;;;;;16.54;68.83;100290.13;4974459;28;8836;-61
2023/08/11 05:55:34;;;;;;;;;9.00;8.60;;;;;16.64;68.22;100296.25;4972703;28;8862;-58
2023/08/11 05:58:03;;;;;;;;;5.80;5.60;;;;;16.76;68.51;100288.81;4973973;28;8935;-61
2023/08/11 06:00:31;;;;;;;;;4.40;4.00;;;;;16.84;68.13;100287.06;4973769;28;8863;-58
2023/08/11 06:02:59;;;;;;;;;7.00;6.60;;;;;16.96;67.80;100293.94;4974017;28;8824;-59
2023/08/11 06:05:26;;;;;;;;;6.00;6.00;;;;;17.08;67.48;100295.38;4973919;28;9621;-59
2023/08/11 06:07:54;;;;;;;;;7.40;6.80;;;;;17.20;67.48;100280.69;4973500;28;8849;-60
2023/08/11 06:10:33;;;;;;;;;9.00;9.00;;;;;17.36;67.29;100286.22;4973455;28;8816;-60
2023/08/11 06:13:01;;;;;;;;;6.40;4.80;;;;;17.50;66.99;100279.41;4973674;28;8967;-61
2023/08/11 06:15:30;;;;;;;;;6.80;6.00;;;;;17.64;66.72;100293.16;4973928;28;8919;-59
2023/08/11 06:17:57;;;;;;;;;8.40;7.40;;;;;17.76;66.83;100291.88;4973802;28;8943;-60
2023/08/11 06:20:25;;;;;;;;;6.60;6.60;;;;;17.85;66.36;100285.53;4975188;28;8843;-60
2023/08/11 06:23:07;;;;;;;;;6.00;5.60;;;;;17.97;66.42;100289.66;4973288;28;8813;-60
2023/08/11 06:25:35;;;;;;;;;6.20;6.00;;;;;18.08;66.37;100288.53;4978191;28;8813;-61
2023/08/11 06:28:03;;;;;;;;;6.60;6.60;;;;;18.22;65.71;100283.34;4979230;28;8966;-59
2023/08/11 06:30:31;;;;;;;;;7.80;7.80;;;;;18.34;65.74;100275.84;4978737;28;8848;-59
2023/08/11 06:32:58;;;;;;;;;10.00;10.00;;;;;18.48;65.45;100277.94;4977307;28;8821;-61
2023/08/11 06:35:26;;;;;;;;;10.00;9.00;;;;;18.61;65.00;100273.75;4976995;28;8895;-61
2023/08/11 06:37:54;;;;;;;;;7.80;7.00;;;;;18.74;65.21;100273.28;4977189;28;8856;-60
2023/08/11 06:40:22;;;;;;;;;6.00;6.00;;;;;18.88;65.13;100276.16;4977969;28;9258;-59
2023/08/11 06:42:50;;;;;;;;;7.00;6.80;;;;;19.02;64.71;100277.38;4976357;28;9463;-59
2023/08/11 06:45:17;;;;;;;;;6.20;6.20;;;;;19.15;64.45;100273.16;4977782;28;8828;-61
2023/08/11 06:47:45;;;;;;;;;7.00;7.00;;;;;19.28;64.50;100270.81;4977683;28;8874;-59
2023/08/11 06:50:13;;;;;;;;;6.80;6.80;;;;;19.41;64.31;100267.63;4977563;28;8936;-61
2023/08/11 06:52:41;;;;;;;;;5.20;4.80;;;;;19.54;64.10;100273.34;4976961;28;8840;-59
2023/08/11 06:55:09;;;;;;;;;4.00;4.00;;;;;19.65;64.36;100268.41;4977564;28;8829;-59
2023/08/11 06:57:36;;;;;;;;;5.00;5.00;;;;;19.79;63.44;100264.19;4976497;28;8828;-60
2023/08/11 07:00:07;;;;;;;;;5.20;5.20;;;;;19.92;63.49;100259.91;4976510;28;8836;-60
2023/08/11 07:02:34;;;;;;;;;4.00;4.00;;;;;20.04;63.45;100257.69;4976764;28;8848;-59
2023/08/11 07:05:02;;;;;;;;;4.80;4.00;;;;;20.18;62.99;100260.53;4976610;28;8833;-61
2023/08/11 07:07:30;;;;;;;;;7.20;4.80;;;;;20.31;62.84;100268.94;4976288;28;8848;-60
2023/08/11 07:09:58;;;;;;;;;4.80;4.60;;;;;20.43;62.84;100264.81;4976810;28;8840;-60
2023/08/11 07:12:30;;;;;;;;;4.00;4.00;;;;;20.59;62.10;100266.59;4976631;28;8987;-61
2023/08/11 07:15:01;;;;;;;;;4.20;3.60;;;;;20.72;62.43;100266.84;4976452;28;8837;-60
2023/08/11 07:17:29;;;;;;;;;4.00;4.00;;;;;20.83;62.13;100268.13;4975765;28;8840;-59
2023/08/11 07:19:56;;;;;;;;;4.00;3.20;;;;;20.93;61.62;100260.66;4976002;28;8845;-59
2023/08/11 07:22:24;;;;;;;;;5.00;4.40;;;;;21.06;61.60;100266.31;4975731;28;9012;-59
2023/08/11 07:24:53;;;;;;;;;5.00;5.00;;;;;21.23;60.92;100267.00;4975497;28;8825;-62
2023/08/11 07:27:20;;;;;;;;;4.00;4.00;;;;;21.40;61.12;100268.56;4975843;28;8828;-61
2023/08/11 07:29:48;;;;;;;;;4.40;4.40;;;;;21.54;61.23;100259.59;4974779;28;9634;-60
2023/08/11 07:32:16;;;;;;;;;4.00;4.00;;;;;21.68;60.69;100262.41;4974957;28;8812;-60
2023/08/11 07:34:44;;;;;;;;;4.60;4.00;;;;;21.82;60.51;100260.72;4975205;28;8884;-59
2023/08/11 07:37:12;;;;;;;;;4.60;4.00;;;;;21.96;60.06;100257.19;4975938;28;8836;-56
2023/08/11 07:39:40;;;;;;;;;4.80;4.80;;;;;22.09;60.13;100265.50;4976448;28;8914;-57
2023/08/11 07:42:07;;;;;;;;;4.00;4.00;;;;;22.21;59.69;100264.00;4976094;28;8867;-59
2023/08/11 07:44:38;;;;;;;;;7.00;5.80;;;;;22.35;59.03;100265.84;4976719;28;8828;-61
2023/08/11 07:47:06;;;;;;;;;5.60;5.60;;;;;22.47;59.25;100265.19;4976902;28;8831;-60
2023/08/11 07:49:35;;;;;;;;;4.00;2.00;;;;;22.60;59.21;100269.94;4976751;28;8836;-61
2023/08/11 07:52:03;;;;;;;;;6.80;6.20;;;;;22.71;58.57;100256.75;4976529;28;8856;-61
2023/08/11 07:54:31;;;;;;;;;4.00;2.80;;;;;22.83;58.21;100267.94;4976762;28;8901;-60
2023/08/11 07:56:59;;;;;;;;;5.80;5.80;;;;;22.93;58.32;100266.56;4976826;28;8846;-60
2023/08/11 07:59:27;;;;;;;;;6.00;6.00;;;;;23.05;58.58;100261.47;4976285;28;8835;-60
2023/08/11 08:01:55;;;;;;;;;4.40;4.40;;;;;23.15;57.67;100260.13;4975502;28;8841;-58
2023/08/11 08:04:23;;;;;;;;;8.00;6.80;;;;;23.24;57.76;100263.56;4975937;28;8879;-62
2023/08/11 08:06:51;;;;;;;;;5.60;5.60;;;;;23.35;57.52;100263.91;4976305;28;8856;-59
2023/08/11 08:09:19;;;;;;;;;5.00;4.20;;;;;23.49;57.12;100262.97;4977110;28;8866;-62
2023/08/11 08:11:47;;;;;;;;;5.00;5.00;;;;;23.61;57.47;100263.28;4976934;28;9490;-61
2023/08/11 08:14:15;;;;;;;;;4.00;4.00;;;;;23.73;56.82;100264.38;4976353;28;8987;-62
2023/08/11 08:16:44;;;;;;;;;3.40;3.40;;;;;23.84;56.93;100272.03;4976826;28;8872;-59
2023/08/11 08:19:14;;;;;;;;;5.00;4.00;;;;;23.97;56.15;100266.72;4975600;28;8824;-60
2023/08/11 08:21:42;;;;;;;;;4.20;4.20;;;;;24.08;56.37;100267.00;4976560;28;8864;-62
2023/08/11 08:24:10;;;;;;;;;5.00;5.00;;;;;24.18;56.70;100263.88;4976525;28;8963;-59
2023/08/11 08:26:38;;;;;;;;;5.40;4.80;;;;;24.29;56.06;100258.72;4976077;28;8837;-60
2023/08/11 08:29:06;;;;;;;;;5.00;5.00;;;;;24.40;55.83;100266.31;4974917;28;8821;-60
2023/08/11 08:31:34;;;;;;;;;3.60;3.60;;;;;24.53;56.10;100262.81;4973686;28;8833;-58
2023/08/11 08:34:02;;;;;;;;;5.00;5.00;;;;;24.63;55.34;100263.28;4974837;28;8829;-60
2023/08/11 08:36:30;;;;;;;;;3.00;3.00;;;;;24.72;55.54;100267.53;4974682;28;8841;-59
2023/08/11 08:38:59;;;;;;;;;4.20;3.00;;;;;24.82;55.35;100273.41;4973962;28;8871;-60
2023/08/11 08:41:30;;;;;;;;;5.20;5.00;;;;;24.93;55.30;100270.09;4973957;28;8817;-62
2023/08/11 08:43:58;;;;;;;;;5.40;3.40;;;;;25.03;55.42;100270.56;4974281;28;8844;-59
2023/08/11 08:46:25;;;;;;;;;2.00;2.00;;;;;25.12;55.29;100277.47;4974510;28;8833;-59
2023/08/11 08:48:54;;;;;;;;;3.40;3.40;;;;;25.20;55.21;100271.84;4974864;28;9625;-60
2023/08/11 08:51:22;;;;;;;;;3.00;2.20;;;;;25.29;54.94;100267.88;4975278;28;8943;-59
2023/08/11 08:53:49;;;;;;;;;5.80;5.80;;;;;25.35;54.57;100258.88;4975021;28;8832;-59
2023/08/11 08:56:17;;;;;;;;;2.20;2.00;;;;;25.41;54.85;100255.31;4974838;28;8845;-60
2023/08/11 08:58:45;;;;;;;;;3.00;3.00;;;;;25.50;54.46;100264.97;4975289;28;8963;-59
2023/08/11 09:01:13;;;;;;;;;3.00;2.00;;;;;25.60;54.61;100261.59;4974312;28;8840;-59
2023/08/11 09:03:41;;;;;;;;;2.80;2.00;;;;;25.71;53.96;100269.16;4973970;28;8851;-60
2023/08/11 09:06:10;;;;;;;;;5.00;5.00;;;;;25.83;54.13;100263.91;4974368;28;9601;-59
2023/08/11 09:08:38;;;;;;;;;4.40;4.20;;;;;25.95;53.52;100263.06;4973118;28;8911;-60
2023/08/11 09:11:07;;;;;;;;;5.40;5.40;;;;;26.05;54.08;100262.63;4974011;28;8828;-60
2023/08/11 09:13:36;;;;;;;;;4.20;4.20;;;;;26.15;53.75;100269.34;4974761;28;8848;-60
2023/08/11 09:16:04;;;;;;;;;4.00;3.00;;;;;26.24;53.13;100268.03;4975538;28;8856;-60
2023/08/11 09:18:32;;;;;;;;;3.00;3.00;;;;;26.33;53.25;100274.13;4974539;28;8836;-61
2023/08/11 09:21:00;;;;;;;;;5.60;5.00;;;;;26.42;53.13;100268.19;4975295;28;8844;-59
2023/08/11 09:23:28;;;;;;;;;3.00;3.00;;;;;26.51;52.79;100266.91;4975740;28;8832;-60
2023/08/11 09:25:55;;;;;;;;;3.00;3.00;;;;;26.61;53.09;100264.56;4974623;28;8860;-59
2023/08/11 09:28:23;;;;;;;;;2.80;2.80;;;;;26.73;52.75;100262.00;4975155;28;8856;-60
2023/08/11 09:30:51;;;;;;;;;1.80;1.80;;;;;26.83;52.50;100270.56;4974563;28;8848;-60
2023/08/11 09:33:20;;;;;;;;;3.00;2.00;;;;;26.91;52.12;100268.41;4973909;28;8841;-60
2023/08/11 09:35:48;;;;;;;;;5.60;3.80;;;;;26.98;52.02;100265.63;4974840;28;8828;-60
2023/08/11 09:38:15;;;;;;;;;4.00;4.00;;;;;27.04;52.28;100264.75;4975219;28;8852;-59
2023/08/11 09:40:44;;;;;;;;;4.00;3.60;;;;;27.12;52.38;100270.81;4974693;28;8858;-60
2023/08/11 09:43:12;;;;;;;;;6.00;6.00;;;;;27.24;51.90;100276.44;4974957;28;8828;-60
2023/08/11 09:45:40;;;;;;;;;3.60;3.60;;;;;27.35;51.22;100276.56;4975025;28;8855;-60
2023/08/11 09:48:08;;;;;;;;;6.60;4.40;;;;;27.57;50.67;100271.56;4974684;28;8849;-60
2023/08/11 09:50:36;;;;;;;;;3.40;3.40;;;;;27.92;50.29;100275.50;4974132;28;8841;-60
2023/08/11 09:53:04;;;;;;;;;5.00;3.20;;;;;28.39;49.56;100266.56;4972933;28;8825;-60
2023/08/11 09:55:33;;;;;;;;;2.40;2.40;;;;;28.88;48.87;100272.69;4973377;28;8836;-59
2023/08/11 09:58:01;;;;;;;;;3.20;3.20;;;;;29.31;48.45;100267.00;4975969;28;8817;-60
2023/08/11 10:00:30;;;;;;;;;4.20;4.20;;;;;29.66;48.06;100266.03;4976797;28;8871;-61
2023/08/11 10:02:58;;;;;;;;;4.00;4.00;;;;;30.07;47.32;100276.97;4975334;28;8827;-60
2023/08/11 10:05:26;;;;;;;;;4.40;4.40;;;;;30.48;46.72;100271.28;4975747;28;8833;-61
2023/08/11 10:07:57;;;;;;;;;2.80;2.80;;;;;30.78;46.17;100269.19;4976747;28;8865;-60
2023/08/11 10:10:27;;;;;;;;;4.00;4.00;;;;;31.08;45.62;100270.63;4975655;28;8874;-58
2023/08/11 10:12:54;;;;;;;;;3.60;3.60;;;;;31.37;45.40;100268.72;4975891;28;8835;-57
2023/08/11 10:15:22;;;;;;;;;3.00;3.00;;;;;31.74;45.31;100269.94;4976558;28;8841;-58
2023/08/11 10:17:51;;;;;;;;;4.00;4.00;;;;;32.05;44.73;100269.31;4977197;28;8828;-57
2023/08/11 10:20:19;;;;;;;;;4.20;4.00;;;;;32.32;43.79;100260.09;4975428;28;8832;-57
2023/08/11 10:22:47;;;;;;;;;4.20;4.20;;;;;32.65;43.71;100259.16;4977055;28;8976;-58
2023/08/11 10:25:14;;;;;;;;;3.00;3.00;;;;;33.00;42.72;100259.59;4977396;28;8851;-57
2023/08/11 10:27:42;;;;;;;;;3.80;3.80;;;;;33.15;42.70;100265.28;4977937;28;8970;-58
2023/08/11 10:30:10;;;;;;;;;4.80;4.00;;;;;33.35;42.84;100249.78;4977536;28;8849;-59
2023/08/11 10:32:38;;;;;;;;;4.60;4.60;;;;;33.53;42.24;100262.38;4977641;28;8817;-58
2023/08/11 10:35:06;;;;;;;;;5.00;5.00;;;;;33.78;42.19;100255.16;4978017;28;8879;-59
2023/08/11 10:37:35;;;;;;;;;3.00;2.40;;;;;33.89;42.52;100250.53;4977338;28;8883;-57
2023/08/11 10:40:03;;;;;;;;;5.20;5.00;;;;;34.15;41.50;100252.34;4976842;28;8836;-57
2023/08/11 10:42:31;;;;;;;;;5.00;5.00;;;;;34.31;41.23;100249.44;4977887;28;8840;-58
2023/08/11 10:44:59;;;;;;;;;5.00;5.00;;;;;34.56;41.39;100246.78;4977104;28;8829;-58
2023/08/11 10:47:27;;;;;;;;;4.60;4.60;;;;;34.84;40.69;100254.69;4977337;28;8824;-60
2023/08/11 10:49:55;;;;;;;;;3.40;3.40;;;;;35.08;40.22;100255.84;4977785;28;8894;-58
2023/08/11 10:52:23;;;;;;;;;4.80;4.80;;;;;35.38;40.39;100246.78;4977681;28;8927;-58
2023/08/11 10:54:51;;;;;;;;;6.00;5.80;;;;;35.62;39.71;100239.59;4977447;28;8910;-59
2023/08/11 10:57:20;;;;;;;;;4.40;4.40;;;;;35.86;39.54;100247.06;4976509;28;8825;-58
2023/08/11 10:59:48;;;;;;;;;4.00;4.00;;;;;35.96;39.66;100237.91;4975793;28;8851;-58
2023/08/11 11:02:16;;;;;;;;;4.60;4.20;;;;;36.07;39.57;100231.25;4975895;28;8864;-59
2023/08/11 11:04:44;;;;;;;;;5.80;5.00;;;;;36.44;39.00;100233.38;4975889;28;8834;-58
2023/08/11 11:07:13;;;;;;;;;5.40;5.40;;;;;36.60;38.73;100232.22;4976229;28;8825;-57
2023/08/11 11:09:41;;;;;;;;;3.80;3.00;;;;;36.68;38.72;100223.31;4975017;28;8825;-58
2023/08/11 11:12:08;;;;;;;;;5.60;4.60;;;;;36.76;38.76;100232.97;4976414;28;8837;-58
2023/08/11 11:14:38;;;;;;;;;5.00;5.00;;;;;36.88;38.45;100234.28;4975509;28;8848;-60
2023/08/11 11:17:06;;;;;;;;;4.00;4.00;;;;;37.00;38.43;100228.38;4975015;28;9023;-57
2023/08/11 11:19:35;;;;;;;;;5.00;4.40;;;;;37.04;37.92;100227.53;4973960;28;8879;-57
2023/08/11 11:22:03;;;;;;;;;5.80;5.00;;;;;37.21;38.01;100229.94;4974635;28;8844;-59
2023/08/11 11:24:32;;;;;;;;;5.00;5.00;;;;;37.27;37.56;100232.41;4974624;28;8828;-60
2023/08/11 11:27:00;;;;;;;;;4.60;4.20;;;;;37.40;37.17;100223.41;4975636;28;8849;-58
2023/08/11 11:29:28;;;;;;;;;5.60;5.20;;;;;37.64;37.10;100221.59;4974301;28;8825;-57
2023/08/11 11:31:59;;;;;;;;;5.60;5.60;;;;;37.86;36.69;100229.44;4975553;28;8998;-59
2023/08/11 11:34:29;;;;;;;;;4.40;4.40;;;;;38.06;36.76;100227.31;4974636;28;8845;-58
2023/08/11 11:36:57;;;;;;;;;3.80;3.80;;;;;38.31;35.69;100228.97;4975719;28;8852;-58